Terminal Aerodrome Forecast
Issued by NWS

Home | Current Version | Previous Version | Text Only | Print | Product List | Glossary On
Versions: 1 2 3 4 5 6 7 8 9 10 11 12 13 14 15 16 17 18 19
000
FTUS43 KJKL 141700
TAFSME
TAF
KSME 141726Z 1418/1518 22010G22KT P6SM SCT050 SCT070
     FM142300 19010G18KT P6SM OVC050
     FM150400 22009KT P6SM -SHRA VCTS OVC030CB
     FM151100 29010KT 5SM -RASN OVC012=

USA.gov is the U.S. government's official web portal to all federal, state and local government web resources and services.